createdAt,value
2014-07-30T19:49:27.461Z,101188
2014-07-30T19:49:45.885Z,101170
2014-07-30T19:50:03.541Z,101182
2014-07-30T19:50:21.822Z,101185
2014-07-30T19:50:40.103Z,101176
2014-07-30T19:50:58.402Z,101179
2014-07-30T19:51:16.683Z,101176
2014-07-30T19:51:34.980Z,101167
2014-07-30T19:51:53.264Z,101176
2014-07-30T19:52:10.920Z,101179
2014-07-30T19:52:27.951Z,101179
2014-07-30T19:52:45.609Z,101179
2014-07-30T19:53:02.641Z,101185
2014-07-30T19:53:20.922Z,101176
2014-07-30T19:53:39.219Z,101179
2014-07-30T19:53:56.252Z,101179
2014-07-30T19:54:14.533Z,101179
2014-07-30T19:54:31.564Z,101188
2014-07-30T19:54:47.973Z,101176
2014-07-30T19:55:05.629Z,101179
2014-07-30T19:55:23.301Z,101179
2014-07-30T19:55:40.957Z,101188
2014-07-30T19:55:59.240Z,101191
2014-07-30T19:56:16.897Z,101185
2014-07-30T19:56:34.553Z,101167
2014-07-30T19:56:52.850Z,101182
2014-07-30T19:57:11.133Z,101182
2014-07-30T19:57:28.789Z,101176
2014-07-30T19:57:46.461Z,101170
2014-07-30T19:58:04.744Z,101170
2014-07-30T19:58:22.401Z,101179
2014-07-30T19:58:39.557Z,101182
2014-07-30T19:58:57.854Z,101179
2014-07-30T19:59:16.137Z,101182
2014-07-30T19:59:34.434Z,101182
2014-07-30T19:59:52.840Z,101191
2014-07-30T20:02:43.752Z,101185
2014-07-30T20:03:51.661Z,101179
2014-07-30T20:05:00.209Z,101179
2014-07-30T20:06:08.758Z,101179
2014-07-30T20:07:16.682Z,101191
2014-07-30T20:08:24.592Z,101180
2014-07-30T20:09:33.141Z,101182
2014-07-30T20:10:41.690Z,101182
2014-07-30T20:11:49.598Z,101191
2014-07-30T20:12:58.288Z,101182
2014-07-30T20:15:31.683Z,101185
2014-07-30T20:17:40.267Z,101203
2014-07-30T20:20:08.380Z,101185
2014-07-30T20:22:16.337Z,101185
2014-07-30T20:24:23.043Z,101197
2014-07-30T20:26:30.375Z,101188
2014-07-30T20:28:38.958Z,101194
2014-07-30T20:30:46.930Z,101197
2014-07-30T20:32:54.889Z,101197
2014-07-30T20:35:03.612Z,101191
2014-07-30T20:37:10.944Z,101185
2014-07-30T20:39:19.667Z,101194
2014-07-30T20:41:28.249Z,101191
2014-07-30T20:43:36.847Z,101194
2014-07-30T20:45:44.821Z,101194
2014-07-30T20:47:52.778Z,101209
2014-07-30T20:50:00.109Z,101206
2014-07-30T20:52:08.066Z,101206
2014-07-30T20:54:16.023Z,101194
2014-07-30T20:56:23.340Z,101203
2014-07-30T20:58:31.923Z,101194
2014-07-30T21:00:39.879Z,101206
2014-07-30T21:02:47.837Z,101215
2014-07-30T21:04:56.559Z,101197
2014-07-30T21:07:05.267Z,101200
2014-07-30T21:09:13.849Z,101218
2014-07-30T21:11:21.180Z,101203
2014-07-30T21:13:29.762Z,101206
2014-07-30T21:15:36.454Z,101230
2014-07-30T21:17:44.413Z,101215
2014-07-30T21:19:52.995Z,101215
2014-07-30T21:22:00.952Z,101206
2014-07-30T21:24:09.535Z,101206
2014-07-30T21:26:18.117Z,101209
2014-07-30T21:28:26.699Z,101218
2014-07-30T21:30:34.016Z,101206
2014-07-30T21:32:42.739Z,101206
2014-07-30T21:34:50.711Z,101212
2014-07-30T21:36:58.044Z,101206
2014-07-30T21:39:06.626Z,101221
2014-07-30T21:41:15.207Z,101218
2014-07-30T21:43:23.163Z,101215
2014-07-30T21:45:30.495Z,101215
2014-07-30T21:47:39.077Z,101212
2014-07-30T21:49:47.161Z,101212
2014-07-30T21:51:55.744Z,101227
2014-07-30T21:54:03.701Z,101224
2014-07-30T21:56:12.282Z,101227
2014-07-30T21:58:20.239Z,101224
2014-07-30T22:00:28.822Z,101230
2014-07-30T22:02:36.779Z,101233
2014-07-30T22:04:44.737Z,101244
2014-07-30T22:06:52.695Z,101242
2014-07-30T22:09:01.277Z,101233
2014-07-30T22:11:09.860Z,101224
2014-07-30T22:13:17.817Z,101227
2014-07-30T22:15:25.149Z,101236
2014-07-30T22:17:33.105Z,101236
2014-07-30T22:19:41.688Z,101227
2014-07-30T22:21:50.270Z,101241
2014-07-30T22:23:57.602Z,101241
2014-07-30T22:26:04.949Z,101230
2014-07-30T22:28:12.390Z,101233
2014-07-30T22:30:20.347Z,101241
2014-07-30T22:32:28.306Z,101238
2014-07-30T22:34:36.248Z,101235
2014-07-30T22:36:44.831Z,101227
2014-07-30T22:38:52.787Z,101226
2014-07-30T22:41:01.369Z,101226
2014-07-30T22:43:09.951Z,101223
2014-07-30T22:45:18.549Z,101223
2014-07-30T22:47:27.131Z,101235
2014-07-30T22:49:35.713Z,101229
2014-07-30T22:51:44.296Z,101226
2014-07-30T22:53:52.878Z,101232
2014-07-30T22:56:01.476Z,101232
2014-07-30T22:58:10.057Z,101238
2014-07-30T23:00:18.640Z,101238
2014-07-30T23:02:26.596Z,101241
2014-07-30T23:04:34.554Z,101226
2014-07-30T23:06:43.121Z,101238
2014-07-30T23:08:51.078Z,101247
2014-07-30T23:10:59.035Z,101232
2014-07-30T23:13:07.617Z,101235
2014-07-30T23:15:16.215Z,101241
2014-07-30T23:17:24.797Z,101247
2014-07-30T23:19:32.770Z,101235
2014-07-30T23:21:40.713Z,101244
2014-07-30T23:23:49.295Z,101244
2014-07-30T23:25:57.892Z,101253
2014-07-30T23:28:05.850Z,101250
2014-07-30T23:30:13.808Z,101238
2014-07-30T23:32:21.749Z,101241
2014-07-30T23:34:30.347Z,101247
2014-07-30T23:36:38.913Z,101241
2014-07-30T23:38:47.510Z,101247
2014-07-30T23:40:56.093Z,101262
2014-07-30T23:43:04.049Z,101244
2014-07-30T23:45:12.647Z,101250
2014-07-30T23:47:21.295Z,101250
2014-07-30T23:49:29.331Z,101247
2014-07-30T23:51:37.969Z,101247
2014-07-30T23:53:45.330Z,101262
2014-07-30T23:55:53.963Z,101250
2014-07-30T23:58:02.555Z,101241
